createdAt,value
2022-12-22T00:00:42.088Z,40.83
2022-12-22T00:03:32.381Z,42.30
2022-12-22T00:06:20.547Z,42.53
2022-12-22T00:09:07.111Z,41.57
2022-12-22T00:11:53.953Z,41.27
2022-12-22T00:14:40.343Z,41.53
2022-12-22T00:17:39.459Z,41.73
2022-12-22T00:20:32.367Z,46.10
2022-12-22T00:23:20.513Z,43.77
2022-12-22T00:26:07.649Z,43.03
2022-12-22T00:28:55.356Z,46.03
2022-12-22T00:31:42.185Z,43.90
2022-12-22T00:34:33.303Z,49.77
2022-12-22T00:37:19.815Z,43.40
2022-12-22T00:40:08.278Z,47.27
2022-12-22T00:42:54.676Z,43.40
2022-12-22T00:45:41.193Z,43.40
2022-12-22T00:48:36.772Z,44.83
2022-12-22T00:51:23.368Z,43.13
2022-12-22T00:54:10.498Z,41.30
2022-12-22T00:56:58.532Z,42.83
2022-12-22T00:59:46.543Z,42.50
2022-12-22T01:02:33.636Z,44.33
2022-12-22T01:05:19.862Z,40.33
2022-12-22T01:08:06.385Z,42.07
2022-12-22T01:10:52.701Z,40.27
2022-12-22T01:13:41.054Z,39.47
2022-12-22T01:16:29.966Z,42.23
2022-12-22T01:19:16.510Z,42.57
2022-12-22T01:22:02.787Z,43.03
2022-12-22T01:24:49.606Z,40.23
2022-12-22T01:27:36.458Z,39.77
2022-12-22T01:30:25.447Z,39.90
2022-12-22T01:33:11.813Z,39.20
2022-12-22T01:35:58.035Z,38.90
2022-12-22T01:38:44.192Z,38.10
2022-12-22T01:41:34.538Z,40.43
2022-12-22T01:44:21.068Z,39.43
2022-12-22T01:47:09.108Z,40.03
2022-12-22T01:49:58.996Z,42.17
2022-12-22T01:52:50.409Z,42.73
2022-12-22T01:55:40.348Z,42.53
2022-12-22T01:58:33.994Z,42.17
2022-12-22T02:01:20.535Z,41.87
2022-12-22T02:04:08.536Z,42.50
2022-12-22T02:07:00.502Z,40.33
2022-12-22T02:09:55.236Z,39.80
2022-12-22T02:12:48.704Z,40.70
2022-12-22T02:15:42.611Z,39.83
2022-12-22T02:18:35.528Z,38.50
2022-12-22T02:21:28.367Z,40.07
2022-12-22T02:24:35.995Z,41.10
2022-12-22T02:27:25.474Z,42.43
2022-12-22T02:30:14.870Z,40.73
2022-12-22T02:33:09.171Z,40.43
2022-12-22T02:36:04.435Z,39.73
2022-12-22T02:39:04.398Z,41.23
2022-12-22T02:41:59.935Z,42.10
2022-12-22T02:45:01.174Z,41.70
2022-12-22T02:47:53.613Z,41.37
2022-12-22T02:50:46.154Z,39.77
2022-12-22T02:53:34.494Z,40.37
2022-12-22T02:56:24.559Z,42.87
2022-12-22T02:59:10.980Z,43.20
2022-12-22T03:02:02.077Z,40.63
2022-12-22T03:04:48.536Z,42.67
2022-12-22T03:07:35.108Z,42.13
2022-12-22T03:10:21.300Z,44.77
2022-12-22T03:13:07.693Z,43.40
2022-12-22T03:15:54.198Z,44.00
2022-12-22T03:18:42.156Z,44.03
2022-12-22T03:21:30.133Z,43.77
2022-12-22T03:24:16.594Z,43.70
2022-12-22T03:26:45.748Z,44.00
2022-12-22T03:29:14.847Z,43.50
2022-12-22T03:31:44.075Z,44.73
2022-12-22T03:34:14.587Z,44.60
2022-12-22T03:36:43.707Z,42.77
2022-12-22T03:39:12.660Z,47.90
2022-12-22T03:41:59.174Z,45.23
2022-12-22T03:44:45.484Z,43.93
2022-12-22T03:47:15.134Z,43.27
2022-12-22T03:49:45.647Z,44.60
2022-12-22T03:52:14.624Z,44.70
2022-12-22T03:54:43.749Z,47.77
2022-12-22T03:57:12.842Z,46.97
2022-12-22T03:59:41.844Z,45.87
2022-12-22T04:02:10.986Z,48.97
2022-12-22T04:04:39.977Z,47.07
2022-12-22T04:07:10.503Z,44.93
2022-12-22T04:09:59.972Z,45.60
2022-12-22T04:12:46.260Z,45.17
2022-12-22T04:15:15.284Z,46.83
2022-12-22T04:17:44.299Z,45.63
2022-12-22T04:20:13.829Z,46.10
2022-12-22T04:22:44.252Z,47.43
2022-12-22T04:25:13.880Z,47.80
2022-12-22T04:27:43.011Z,44.70
2022-12-22T04:30:13.228Z,46.03
2022-12-22T04:32:42.523Z,45.73
2022-12-22T04:35:11.956Z,45.07
2022-12-22T04:37:41.014Z,47.63
2022-12-22T04:40:12.034Z,48.03
2022-12-22T04:42:41.048Z,47.40
2022-12-22T04:45:10.962Z,44.43
2022-12-22T04:47:40.226Z,45.43
2022-12-22T04:50:10.121Z,45.27
2022-12-22T04:52:39.497Z,44.53
2022-12-22T04:55:10.719Z,45.00
2022-12-22T04:57:40.992Z,42.70
2022-12-22T05:00:12.160Z,44.30
2022-12-22T05:02:41.385Z,44.87
2022-12-22T05:05:11.128Z,43.03
2022-12-22T05:07:40.132Z,44.50
2022-12-22T05:10:12.251Z,49.73
2022-12-22T05:12:56.551Z,51.33
2022-12-22T05:15:26.491Z,49.87
2022-12-22T05:17:55.793Z,50.37
2022-12-22T05:20:25.408Z,48.40
2022-12-22T05:22:54.992Z,49.37
2022-12-22T05:25:28.520Z,52.27
2022-12-22T05:28:00.491Z,50.20
2022-12-22T05:30:29.584Z,53.43
2022-12-22T05:32:58.691Z,53.33
2022-12-22T05:35:27.843Z,52.80
2022-12-22T05:37:56.831Z,50.53
2022-12-22T05:40:27.546Z,53.90
2022-12-22T05:42:56.608Z,52.93
2022-12-22T05:45:25.821Z,53.70
2022-12-22T05:47:54.913Z,54.77
2022-12-22T05:50:26.178Z,55.07
2022-12-22T05:52:56.287Z,54.47
2022-12-22T05:55:26.958Z,52.33
2022-12-22T05:57:56.622Z,49.37
2022-12-22T06:00:25.842Z,47.30
2022-12-22T06:02:55.000Z,49.00
2022-12-22T06:05:24.668Z,48.50
2022-12-22T06:07:53.726Z,50.50
2022-12-22T06:10:23.184Z,49.40
2022-12-22T06:12:53.750Z,46.37
2022-12-22T06:15:22.826Z,47.10
2022-12-22T06:17:51.941Z,44.73
2022-12-22T06:20:21.025Z,47.00
2022-12-22T06:22:50.040Z,44.67
2022-12-22T06:25:19.233Z,44.37
2022-12-22T06:27:48.894Z,46.60
2022-12-22T06:30:29.204Z,48.10
2022-12-22T06:33:02.131Z,46.53
2022-12-22T06:35:31.180Z,42.60
2022-12-22T06:38:00.224Z,42.77
2022-12-22T06:40:29.315Z,43.90
2022-12-22T06:43:10.096Z,41.17
2022-12-22T06:45:44.510Z,43.17
2022-12-22T06:48:14.892Z,42.93
2022-12-22T06:50:44.009Z,41.27
2022-12-22T06:53:13.522Z,40.70
2022-12-22T06:55:42.793Z,41.53
2022-12-22T06:58:11.817Z,43.40
2022-12-22T07:00:43.285Z,42.87
2022-12-22T07:03:12.512Z,43.87
2022-12-22T07:05:41.634Z,45.20
2022-12-22T07:08:10.727Z,43.83
2022-12-22T07:10:57.049Z,43.17
2022-12-22T07:13:27.716Z,40.97
2022-12-22T07:16:01.053Z,42.77
2022-12-22T07:18:32.435Z,44.03
2022-12-22T07:21:02.806Z,42.33
2022-12-22T07:23:32.240Z,40.43
2022-12-22T07:26:01.734Z,38.20
2022-12-22T07:28:30.745Z,40.43
2022-12-22T07:31:01.212Z,42.50
2022-12-22T07:33:30.701Z,38.10
2022-12-22T07:36:05.760Z,38.80
2022-12-22T07:38:36.474Z,43.27
2022-12-22T07:41:27.139Z,38.97
2022-12-22T07:43:56.160Z,45.07
2022-12-22T07:46:28.283Z,41.53
2022-12-22T07:49:14.801Z,42.30
2022-12-22T07:51:44.853Z,37.80
2022-12-22T07:54:15.591Z,41.23
2022-12-22T07:56:45.706Z,44.77
2022-12-22T07:59:15.429Z,43.83
2022-12-22T08:01:46.233Z,43.13
2022-12-22T08:04:16.340Z,44.03
2022-12-22T08:06:46.774Z,43.97
2022-12-22T08:09:18.208Z,45.33
2022-12-22T08:11:49.143Z,46.53
2022-12-22T08:14:18.203Z,42.57
2022-12-22T08:16:48.776Z,43.10
2022-12-22T08:19:17.996Z,42.63
2022-12-22T08:21:52.392Z,41.37
2022-12-22T08:24:21.976Z,43.40
2022-12-22T08:26:54.626Z,40.20
2022-12-22T08:29:26.710Z,40.70
2022-12-22T08:31:58.083Z,41.63
2022-12-22T08:34:27.464Z,39.87
2022-12-22T08:37:02.054Z,42.63
2022-12-22T08:39:34.448Z,41.40
2022-12-22T08:42:05.204Z,42.13
2022-12-22T08:44:34.384Z,41.13
2022-12-22T08:47:05.094Z,43.83
2022-12-22T08:49:37.289Z,43.53
2022-12-22T08:52:06.786Z,43.37
2022-12-22T08:54:35.975Z,44.97
2022-12-22T08:57:05.093Z,45.47
2022-12-22T08:59:34.293Z,44.60
2022-12-22T09:02:05.768Z,43.10
2022-12-22T09:04:37.810Z,42.70
2022-12-22T09:07:07.227Z,42.27
2022-12-22T09:09:36.990Z,43.87
2022-12-22T09:12:06.687Z,43.97
2022-12-22T09:14:35.917Z,41.27
2022-12-22T09:17:06.334Z,43.40
2022-12-22T09:19:35.376Z,44.17
2022-12-22T09:22:04.513Z,42.40
2022-12-22T09:24:33.584Z,43.90
2022-12-22T09:27:03.560Z,42.17
2022-12-22T09:29:32.996Z,44.10
2022-12-22T09:32:02.090Z,42.70
2022-12-22T09:34:32.925Z,42.83
2022-12-22T09:37:01.880Z,39.57
2022-12-22T09:39:31.092Z,41.87
2022-12-22T09:42:00.674Z,43.40
2022-12-22T09:44:33.920Z,43.07
2022-12-22T09:47:05.103Z,42.03
2022-12-22T09:49:35.578Z,45.13
2022-12-22T09:52:06.283Z,42.10
2022-12-22T09:54:35.390Z,42.10
2022-12-22T09:57:04.573Z,43.20
2022-12-22T09:59:33.582Z,42.20
2022-12-22T10:02:16.467Z,42.40
2022-12-22T10:05:01.639Z,41.87
2022-12-22T10:07:34.499Z,41.83
2022-12-22T10:10:08.566Z,41.50
2022-12-22T10:12:37.719Z,44.50
2022-12-22T10:15:13.286Z,45.80
2022-12-22T10:17:45.989Z,44.57
2022-12-22T10:20:27.405Z,46.10
2022-12-22T10:23:00.004Z,40.60
2022-12-22T10:26:00.060Z,46.00
2022-12-22T10:28:26.086Z,45.97
2022-12-22T10:31:16.676Z,45.10
2022-12-22T10:33:47.898Z,46.33
2022-12-22T10:36:23.493Z,46.03
2022-12-22T10:39:05.372Z,48.20
2022-12-22T10:41:38.108Z,44.67
2022-12-22T10:44:10.147Z,44.43
2022-12-22T10:46:42.355Z,44.30
2022-12-22T10:49:16.587Z,44.30
2022-12-22T10:51:49.440Z,44.50
2022-12-22T10:54:44.803Z,43.07
2022-12-22T10:57:30.208Z,42.77
2022-12-22T11:00:00.964Z,44.53
2022-12-22T11:02:34.538Z,43.57
2022-12-22T11:05:07.207Z,43.13
2022-12-22T11:07:39.795Z,45.97
2022-12-22T11:10:21.022Z,46.13
2022-12-22T11:13:02.537Z,59.77
2022-12-22T11:15:38.763Z,45.90
2022-12-22T11:18:19.049Z,44.57
2022-12-22T11:21:00.401Z,47.30
2022-12-22T11:23:38.981Z,46.60
2022-12-22T11:26:16.689Z,47.00
2022-12-22T11:28:57.126Z,46.10
2022-12-22T11:31:41.291Z,43.87
2022-12-22T11:34:24.996Z,45.30
2022-12-22T11:37:05.323Z,49.30
2022-12-22T11:39:45.061Z,47.57
2022-12-22T11:42:31.183Z,47.27
2022-12-22T11:45:07.409Z,42.87
2022-12-22T11:47:45.643Z,46.83
2022-12-22T11:51:02.251Z,45.30
2022-12-22T11:53:41.831Z,44.53
2022-12-22T11:56:23.780Z,45.00
2022-12-22T11:59:23.762Z,48.63
2022-12-22T12:02:09.660Z,46.43
2022-12-22T12:05:01.332Z,47.77
2022-12-22T12:07:35.930Z,46.57
2022-12-22T12:10:15.324Z,45.30
2022-12-22T12:12:52.920Z,45.60
2022-12-22T12:15:29.953Z,44.27
2022-12-22T12:18:35.894Z,45.90
2022-12-22T12:21:21.452Z,44.00
2022-12-22T12:24:16.487Z,43.33
2022-12-22T12:26:57.574Z,50.83
2022-12-22T12:29:30.492Z,46.50
2022-12-22T12:32:05.877Z,42.80
2022-12-22T12:34:41.352Z,44.50
2022-12-22T12:37:19.151Z,45.80
2022-12-22T12:40:01.243Z,45.50
2022-12-22T12:42:34.277Z,43.27
2022-12-22T12:45:05.512Z,45.27
2022-12-22T12:47:36.269Z,46.30
2022-12-22T12:50:33.279Z,45.80
2022-12-22T12:53:11.419Z,44.73
2022-12-22T12:56:10.773Z,44.77
2022-12-22T12:58:58.279Z,46.60
2022-12-22T13:02:02.196Z,46.77
2022-12-22T13:05:13.817Z,47.40
2022-12-22T13:08:09.242Z,49.43
2022-12-22T13:10:40.774Z,50.63
2022-12-22T13:13:14.646Z,50.37
2022-12-22T13:15:45.300Z,49.23
2022-12-22T13:18:49.832Z,49.43
2022-12-22T13:24:25.770Z,47.93
2022-12-22T13:26:56.590Z,46.23
2022-12-22T13:29:30.035Z,48.17
2022-12-22T13:32:02.775Z,47.13
2022-12-22T13:35:20.238Z,46.00
2022-12-22T13:37:40.020Z,49.37
2022-12-22T13:40:21.149Z,49.90
2022-12-22T13:42:52.583Z,47.97
2022-12-22T13:45:38.180Z,48.50
2022-12-22T13:48:13.838Z,46.87
2022-12-22T13:50:49.898Z,48.83
2022-12-22T13:56:17.766Z,49.13
2022-12-22T13:58:48.135Z,47.60
2022-12-22T14:01:19.570Z,45.73
2022-12-22T14:04:01.514Z,46.00
2022-12-22T14:06:35.815Z,46.70
2022-12-22T14:09:19.551Z,46.00
2022-12-22T14:11:52.788Z,46.87
2022-12-22T14:14:26.740Z,45.67
2022-12-22T14:16:58.743Z,45.23
2022-12-22T14:19:32.213Z,44.80
2022-12-22T14:22:08.442Z,44.57
2022-12-22T14:24:44.387Z,44.03
2022-12-22T14:27:20.414Z,44.90
2022-12-22T14:29:49.743Z,42.60
2022-12-22T14:32:35.793Z,43.40
2022-12-22T14:35:05.426Z,45.67
2022-12-22T14:37:35.778Z,43.43
2022-12-22T14:40:04.978Z,41.30
2022-12-22T14:42:35.739Z,45.20
2022-12-22T14:45:05.047Z,42.93
2022-12-22T14:47:38.654Z,47.20
2022-12-22T14:50:18.334Z,45.70
2022-12-22T14:52:51.271Z,45.03
2022-12-22T14:55:30.160Z,46.00
2022-12-22T14:58:03.833Z,47.20
2022-12-22T15:00:36.028Z,53.23
2022-12-22T15:03:07.305Z,46.47
2022-12-22T15:05:39.187Z,43.97
2022-12-22T15:08:47.430Z,45.93
2022-12-22T15:11:19.599Z,43.50
2022-12-22T15:13:50.837Z,43.90
2022-12-22T15:16:21.744Z,44.53
2022-12-22T15:18:51.800Z,44.03
2022-12-22T15:21:23.071Z,42.80
2022-12-22T15:23:53.618Z,42.53
2022-12-22T15:26:22.674Z,41.23
2022-12-22T15:28:51.739Z,42.43
2022-12-22T15:31:20.884Z,42.97
2022-12-22T15:33:50.074Z,42.10
2022-12-22T15:36:19.186Z,44.73
2022-12-22T15:38:48.211Z,44.73
2022-12-22T15:41:18.822Z,43.93
2022-12-22T15:44:03.108Z,44.37
2022-12-22T15:46:32.554Z,43.50
2022-12-22T15:49:01.814Z,43.20
2022-12-22T15:51:33.433Z,38.67
2022-12-22T15:54:02.662Z,42.40
2022-12-22T15:56:34.306Z,43.33
2022-12-22T15:59:03.785Z,40.40
2022-12-22T16:01:32.930Z,41.90
2022-12-22T16:04:02.069Z,41.30
2022-12-22T16:06:31.920Z,48.23
2022-12-22T16:09:01.273Z,47.67
2022-12-22T16:11:31.844Z,43.03
2022-12-22T16:14:02.017Z,43.27
2022-12-22T16:16:31.062Z,43.43
2022-12-22T16:19:00.194Z,43.20
2022-12-22T16:21:32.496Z,43.77
2022-12-22T16:24:04.021Z,43.90
2022-12-22T16:26:34.551Z,43.27
2022-12-22T16:29:03.661Z,44.47
2022-12-22T16:31:32.729Z,42.07
2022-12-22T16:34:01.875Z,43.70
2022-12-22T16:36:30.867Z,41.37
2022-12-22T16:38:59.848Z,42.50
2022-12-22T16:41:29.358Z,41.00
2022-12-22T16:46:48.175Z,44.27
2022-12-22T16:49:26.445Z,43.03
2022-12-22T16:51:56.521Z,42.53
2022-12-22T16:54:26.041Z,40.30
2022-12-22T16:56:55.632Z,43.23
2022-12-22T16:59:25.989Z,42.67
2022-12-22T17:01:58.303Z,42.00
2022-12-22T17:04:30.902Z,42.70
2022-12-22T17:07:02.116Z,41.00
2022-12-22T17:09:35.239Z,38.47
2022-12-22T17:12:07.323Z,39.27
2022-12-22T17:14:40.384Z,36.60
2022-12-22T17:17:15.836Z,37.50
2022-12-22T17:19:44.989Z,38.73
2022-12-22T17:22:24.125Z,40.00
2022-12-22T17:24:55.045Z,38.77
2022-12-22T17:27:27.600Z,38.20
2022-12-22T17:29:59.207Z,39.57
2022-12-22T17:32:28.220Z,37.70
2022-12-22T17:34:57.223Z,37.10
2022-12-22T17:37:26.483Z,36.33
2022-12-22T17:40:01.577Z,35.93
2022-12-22T17:42:32.665Z,37.73
2022-12-22T17:45:03.458Z,40.67
2022-12-22T17:47:40.412Z,56.37
2022-12-22T17:50:15.135Z,44.73
2022-12-22T17:52:44.937Z,39.63
2022-12-22T17:56:05.323Z,39.50
2022-12-22T17:58:16.046Z,36.30
2022-12-22T18:00:46.797Z,38.23
2022-12-22T18:03:16.669Z,38.37
2022-12-22T18:05:49.329Z,38.63
2022-12-22T18:08:20.989Z,38.73
2022-12-22T18:10:50.582Z,39.07
2022-12-22T18:13:22.561Z,38.17
2022-12-22T18:15:53.293Z,42.30
2022-12-22T18:18:22.506Z,43.73
2022-12-22T18:21:05.888Z,48.47
2022-12-22T18:23:38.153Z,50.67
2022-12-22T18:26:09.803Z,46.80
2022-12-22T18:28:38.889Z,47.47
2022-12-22T18:31:09.364Z,42.93
2022-12-22T18:33:38.428Z,41.97
2022-12-22T18:36:07.957Z,42.83
2022-12-22T18:38:37.012Z,41.20
2022-12-22T18:41:06.235Z,38.30
2022-12-22T18:43:35.269Z,40.17
2022-12-22T18:46:04.237Z,41.90
2022-12-22T18:48:34.712Z,42.90
2022-12-22T18:51:06.099Z,42.00
2022-12-22T18:53:35.139Z,47.73
2022-12-22T18:56:04.073Z,45.30
2022-12-22T18:58:33.153Z,47.03
2022-12-22T19:01:04.043Z,47.57
2022-12-22T19:03:34.795Z,49.57
2022-12-22T19:06:03.958Z,47.30
2022-12-22T19:08:33.031Z,63.17
2022-12-22T19:11:05.469Z,68.40
2022-12-22T19:13:36.889Z,72.83
2022-12-22T19:16:07.315Z,76.30
2022-12-22T19:18:37.725Z,65.43
2022-12-22T19:21:07.334Z,64.30
2022-12-22T19:23:36.374Z,55.53
2022-12-22T19:26:09.177Z,60.80
2022-12-22T19:28:41.268Z,60.07
2022-12-22T19:31:17.003Z,51.93
2022-12-22T19:33:47.745Z,47.70
2022-12-22T19:36:19.529Z,46.07
2022-12-22T19:38:51.040Z,45.27
2022-12-22T19:41:34.235Z,45.00
2022-12-22T19:44:03.429Z,44.27
2022-12-22T19:46:35.679Z,41.13
2022-12-22T19:49:06.284Z,42.27
2022-12-22T19:51:35.286Z,39.10
2022-12-22T19:54:04.489Z,42.43
2022-12-22T19:56:33.788Z,40.77
2022-12-22T19:59:04.870Z,38.17
2022-12-22T20:01:34.475Z,39.57
2022-12-22T20:04:05.164Z,39.33
2022-12-22T20:06:34.262Z,37.13
2022-12-22T20:09:03.433Z,38.10
2022-12-22T20:11:35.815Z,36.43
2022-12-22T20:14:05.085Z,34.20
2022-12-22T20:16:34.232Z,35.50
2022-12-22T20:19:03.371Z,32.03
2022-12-22T20:21:33.782Z,32.07
2022-12-22T20:24:03.238Z,31.93
2022-12-22T20:26:32.628Z,31.97
2022-12-22T20:29:01.905Z,31.07
2022-12-22T20:31:30.941Z,35.47
2022-12-22T20:34:01.408Z,35.90
2022-12-22T20:36:35.222Z,34.73
2022-12-22T20:39:07.400Z,35.30
2022-12-22T20:41:36.369Z,33.57
2022-12-22T20:44:05.364Z,33.10
2022-12-22T20:46:34.463Z,32.37
2022-12-22T20:49:05.963Z,32.50
2022-12-22T20:51:36.336Z,30.83
2022-12-22T20:54:05.938Z,32.13
2022-12-22T20:56:37.740Z,33.10
2022-12-22T20:59:15.390Z,31.23
2022-12-22T21:01:44.524Z,31.70
2022-12-22T21:04:14.871Z,34.37
2022-12-22T21:06:49.785Z,31.07
2022-12-22T21:09:18.817Z,35.80
2022-12-22T21:11:48.097Z,37.43
2022-12-22T21:14:17.524Z,38.87
2022-12-22T21:16:46.627Z,39.40
2022-12-22T21:19:18.924Z,45.97
2022-12-22T21:21:49.491Z,42.70
2022-12-22T21:24:18.869Z,40.20
2022-12-22T21:26:50.364Z,43.60
2022-12-22T21:29:21.955Z,40.07
2022-12-22T21:31:51.017Z,36.37
2022-12-22T21:34:20.838Z,33.83
2022-12-22T21:36:56.716Z,35.23
2022-12-22T21:39:32.574Z,38.70
2022-12-22T21:42:01.743Z,36.10
2022-12-22T21:44:32.184Z,38.77
2022-12-22T21:47:01.623Z,38.20
2022-12-22T21:49:32.395Z,38.93
2022-12-22T21:52:03.017Z,37.33
2022-12-22T21:54:32.187Z,34.60
2022-12-22T21:57:01.215Z,42.17
2022-12-22T21:59:31.421Z,45.00
2022-12-22T22:02:00.652Z,41.57
2022-12-22T22:04:29.787Z,34.60
2022-12-22T22:07:03.413Z,33.73
2022-12-22T22:09:32.502Z,33.50
2022-12-22T22:12:22.039Z,34.10
2022-12-22T22:14:55.465Z,32.87
2022-12-22T22:17:24.717Z,30.97
2022-12-22T22:19:53.724Z,29.87
2022-12-22T22:22:24.099Z,30.30
2022-12-22T22:24:53.044Z,29.10
2022-12-22T22:27:21.972Z,29.47
2022-12-22T22:29:51.051Z,25.63
2022-12-22T22:32:20.377Z,28.80
2022-12-22T22:34:49.514Z,29.93
2022-12-22T22:37:18.516Z,30.33
2022-12-22T22:39:53.687Z,29.83
2022-12-22T22:42:22.776Z,30.87
2022-12-22T22:44:51.757Z,31.07
2022-12-22T22:47:20.707Z,32.27
2022-12-22T22:49:49.721Z,33.77
2022-12-22T22:52:18.758Z,33.87
2022-12-22T22:54:49.152Z,34.40
2022-12-22T22:57:18.307Z,34.17
2022-12-22T22:59:47.315Z,35.83
2022-12-22T23:02:17.317Z,43.93
2022-12-22T23:04:46.654Z,45.03
2022-12-22T23:07:15.726Z,46.03
2022-12-22T23:09:44.807Z,41.67
2022-12-22T23:12:15.147Z,40.97
2022-12-22T23:14:44.222Z,44.67
2022-12-22T23:17:13.223Z,42.23
2022-12-22T23:19:42.276Z,44.37
2022-12-22T23:22:11.307Z,43.87
2022-12-22T23:24:40.345Z,39.27
2022-12-22T23:27:09.446Z,42.80
2022-12-22T23:29:40.212Z,36.37
2022-12-22T23:32:09.277Z,36.07
2022-12-22T23:34:38.268Z,37.43
2022-12-22T23:37:07.258Z,37.23
2022-12-22T23:39:36.542Z,36.67
2022-12-22T23:42:05.718Z,37.60
2022-12-22T23:44:34.939Z,34.63
2022-12-22T23:47:05.528Z,36.13
2022-12-22T23:49:34.678Z,36.97
2022-12-22T23:52:03.641Z,35.57
2022-12-22T23:54:32.636Z,34.20
2022-12-22T23:57:01.757Z,34.80
2022-12-22T23:59:31.705Z,32.33
